createdAt,value
2022-11-12T00:01:01.787Z,3.55
2022-11-12T00:03:28.326Z,3.53
2022-11-12T00:05:54.817Z,3.53
2022-11-12T00:08:21.636Z,3.55
2022-11-12T00:10:48.345Z,3.54
2022-11-12T00:13:15.186Z,3.53
2022-11-12T00:15:41.837Z,3.52
2022-11-12T00:18:08.520Z,3.53
2022-11-12T00:20:35.211Z,3.54
2022-11-12T00:23:01.864Z,3.56
2022-11-12T00:25:28.524Z,3.56
2022-11-12T00:28:00.345Z,3.54
2022-11-12T00:30:27.117Z,3.50
2022-11-12T00:32:53.727Z,3.44
2022-11-12T00:35:20.166Z,3.40
2022-11-12T00:37:46.805Z,3.35
2022-11-12T00:40:13.365Z,3.31
2022-11-12T00:42:39.884Z,3.27
2022-11-12T00:45:07.139Z,3.21
2022-11-12T00:47:33.675Z,3.14
2022-11-12T00:50:00.213Z,3.07
2022-11-12T00:52:26.756Z,3.03
2022-11-12T00:54:53.292Z,2.98
2022-11-12T00:57:19.829Z,2.94
2022-11-12T00:59:46.468Z,2.90
2022-11-12T01:02:13.008Z,2.86
2022-11-12T01:04:39.546Z,2.82
2022-11-12T01:07:06.065Z,2.75
2022-11-12T01:09:32.723Z,2.68
2022-11-12T01:11:59.265Z,2.65
2022-11-12T01:14:25.800Z,2.62
2022-11-12T01:16:52.338Z,2.57
2022-11-12T01:19:18.928Z,2.54
2022-11-12T01:21:45.512Z,2.51
2022-11-12T01:24:12.240Z,2.52
2022-11-12T01:26:39.204Z,2.55
2022-11-12T01:29:06.366Z,2.58
2022-11-12T01:31:38.384Z,2.62
2022-11-12T01:34:07.323Z,2.62
2022-11-12T01:36:36.957Z,2.60
2022-11-12T01:39:08.696Z,2.58
2022-11-12T01:41:39.252Z,2.50
2022-11-12T01:44:12.079Z,2.41
2022-11-12T01:46:50.981Z,2.37
2022-11-12T01:49:52.374Z,2.33
2022-11-12T01:52:35.125Z,2.33
2022-11-12T01:55:09.842Z,2.31
2022-11-12T01:57:43.976Z,2.29
2022-11-12T02:00:13.000Z,2.30
2022-11-12T02:02:40.921Z,2.30
2022-11-12T02:05:11.153Z,2.28
2022-11-12T02:07:41.065Z,2.28
2022-11-12T02:10:09.061Z,2.30
2022-11-12T02:12:36.455Z,2.29
2022-11-12T02:15:04.056Z,2.30
2022-11-12T02:17:30.490Z,2.29
2022-11-12T02:20:00.840Z,2.30
2022-11-12T02:22:27.513Z,2.30
2022-11-12T02:24:54.204Z,2.27
2022-11-12T02:27:21.757Z,2.25
2022-11-12T02:29:48.254Z,2.25
2022-11-12T02:32:14.835Z,2.25
2022-11-12T02:34:41.584Z,2.28
2022-11-12T02:37:08.327Z,2.31
2022-11-12T02:39:35.057Z,2.30
2022-11-12T02:42:01.714Z,2.28
2022-11-12T02:44:28.896Z,2.28
2022-11-12T02:46:55.381Z,2.27
2022-11-12T02:49:22.139Z,2.25
2022-11-12T02:51:48.677Z,2.22
2022-11-12T02:54:15.216Z,2.19
2022-11-12T02:56:41.944Z,2.17
2022-11-12T02:59:08.503Z,2.15
2022-11-12T03:01:35.041Z,2.13
2022-11-12T03:04:01.681Z,2.09
2022-11-12T03:06:28.318Z,2.08
2022-11-12T03:08:54.855Z,2.05
2022-11-12T03:11:21.389Z,2.03
2022-11-12T03:13:48.036Z,2.01
2022-11-12T03:16:14.477Z,1.99
2022-11-12T03:18:40.908Z,1.97
2022-11-12T03:21:07.415Z,1.96
2022-11-12T03:23:33.963Z,1.93
2022-11-12T03:26:03.521Z,1.92
2022-11-12T03:28:30.549Z,1.90
2022-11-12T03:30:59.261Z,1.89
2022-11-12T03:33:25.723Z,1.89
2022-11-12T03:35:52.420Z,1.88
2022-11-12T03:38:18.903Z,1.87
2022-11-12T03:40:45.600Z,1.84
2022-11-12T03:43:12.135Z,1.81
2022-11-12T03:45:38.677Z,1.80
2022-11-12T03:48:05.834Z,1.76
2022-11-12T03:50:32.475Z,1.76
2022-11-12T03:52:59.933Z,1.71
2022-11-12T03:55:28.589Z,1.66
2022-11-12T03:57:56.436Z,1.63
2022-11-12T04:00:24.887Z,1.58
2022-11-12T04:02:52.026Z,1.52
2022-11-12T04:05:18.784Z,1.49
2022-11-12T04:07:45.314Z,1.44
2022-11-12T04:10:11.956Z,1.41
2022-11-12T04:12:38.501Z,1.38
2022-11-12T04:15:05.852Z,1.36
2022-11-12T04:17:32.386Z,1.36
2022-11-12T04:19:59.133Z,1.36
2022-11-12T04:22:25.667Z,1.37
2022-11-12T04:24:52.209Z,1.39
2022-11-12T04:27:30.795Z,1.39
2022-11-12T04:29:57.781Z,1.36
2022-11-12T04:32:25.020Z,1.35
2022-11-12T04:34:52.417Z,1.34
2022-11-12T04:37:23.336Z,1.30
2022-11-12T04:39:51.303Z,1.28
2022-11-12T04:42:17.901Z,1.25
2022-11-12T04:44:44.504Z,1.24
2022-11-12T04:47:10.995Z,1.22
2022-11-12T04:49:37.559Z,1.20
2022-11-12T04:52:04.202Z,1.18
2022-11-12T04:54:30.740Z,1.13
2022-11-12T04:56:57.278Z,1.07
2022-11-12T04:59:23.815Z,1.03
2022-11-12T05:01:50.455Z,0.99
2022-11-12T05:04:16.993Z,0.95
2022-11-12T05:06:43.837Z,0.91
2022-11-12T05:09:10.377Z,0.88
2022-11-12T05:11:36.834Z,0.83
2022-11-12T05:14:03.302Z,0.78
2022-11-12T05:16:29.966Z,0.73
2022-11-12T05:18:56.534Z,0.68
2022-11-12T05:21:23.076Z,0.64
2022-11-12T05:23:49.612Z,0.63
2022-11-12T05:26:16.147Z,0.61
2022-11-12T05:28:42.796Z,0.60
2022-11-12T05:31:09.231Z,0.59
2022-11-12T05:33:35.709Z,0.61
2022-11-12T05:36:02.292Z,0.64
2022-11-12T05:38:29.021Z,0.64
2022-11-12T05:40:55.793Z,0.63
2022-11-12T05:43:22.335Z,0.60
2022-11-12T05:45:48.875Z,0.59
2022-11-12T05:48:18.857Z,0.58
2022-11-12T05:53:42.684Z,0.53
2022-11-12T05:56:09.957Z,0.51
2022-11-12T05:58:37.189Z,0.50
2022-11-12T06:01:04.566Z,0.55
2022-11-12T06:03:31.332Z,0.62
2022-11-12T06:05:58.052Z,0.67
2022-11-12T06:08:24.796Z,0.72
2022-11-12T06:10:55.455Z,0.77
2022-11-12T06:13:24.201Z,0.81
2022-11-12T06:15:52.552Z,0.86
2022-11-12T06:18:19.153Z,0.92
2022-11-12T06:20:45.808Z,1.02
2022-11-12T06:23:12.424Z,1.17
2022-11-12T06:25:38.867Z,1.30
2022-11-12T06:28:05.317Z,1.48
2022-11-12T06:30:31.835Z,1.67
2022-11-12T06:32:58.374Z,1.87
2022-11-12T06:35:24.910Z,2.13
2022-11-12T06:37:51.554Z,2.38
2022-11-12T06:40:18.195Z,2.67
2022-11-12T06:42:44.734Z,2.93
2022-11-12T06:45:11.197Z,3.21
2022-11-12T06:47:37.819Z,3.46
2022-11-12T06:50:04.876Z,3.64
2022-11-12T06:52:31.512Z,3.87
2022-11-12T06:54:58.041Z,4.07
2022-11-12T06:57:24.578Z,4.31
2022-11-12T06:59:51.197Z,4.51
2022-11-12T07:02:17.705Z,4.51
2022-11-12T07:04:44.196Z,4.46
2022-11-12T07:07:11.256Z,4.44
2022-11-12T07:09:37.879Z,4.45
2022-11-12T07:12:04.737Z,4.50
2022-11-12T07:14:31.272Z,4.54
2022-11-12T07:16:57.813Z,4.60
2022-11-12T07:19:24.239Z,4.69
2022-11-12T07:21:50.897Z,4.72
2022-11-12T07:24:17.352Z,4.80
2022-11-12T07:26:47.520Z,4.90
2022-11-12T07:29:24.878Z,4.93
2022-11-12T07:32:01.018Z,5.09
2022-11-12T07:34:27.455Z,5.26
2022-11-12T07:36:53.887Z,5.37
2022-11-12T07:39:20.424Z,5.47
2022-11-12T07:41:46.966Z,5.65
2022-11-12T07:44:13.513Z,5.85
2022-11-12T07:46:40.044Z,6.02
2022-11-12T07:49:06.581Z,6.15
2022-11-12T07:51:33.117Z,6.32
2022-11-12T07:53:59.945Z,6.54
2022-11-12T07:56:28.493Z,6.73
2022-11-12T07:58:55.485Z,6.90
2022-11-12T08:01:36.404Z,7.07
2022-11-12T08:04:05.396Z,7.20
2022-11-12T08:06:32.997Z,7.33
2022-11-12T08:09:01.549Z,7.53
2022-11-12T08:11:28.471Z,7.86
2022-11-12T08:13:55.008Z,8.31
2022-11-12T08:16:21.653Z,8.82
2022-11-12T08:18:48.715Z,9.32
2022-11-12T08:21:17.421Z,9.74
2022-11-12T08:23:44.243Z,10.01
2022-11-12T08:26:13.455Z,10.14
2022-11-12T08:28:40.186Z,10.31
2022-11-12T08:31:09.873Z,10.35
2022-11-12T08:33:36.660Z,10.34
2022-11-12T08:36:05.307Z,10.48
2022-11-12T08:38:32.252Z,10.69
2022-11-12T08:41:10.196Z,10.82
2022-11-12T08:43:37.658Z,10.86
2022-11-12T08:46:04.619Z,10.97
2022-11-12T08:48:32.677Z,11.11
2022-11-12T08:51:01.925Z,11.21
2022-11-12T08:53:28.417Z,11.22
2022-11-12T08:55:56.287Z,11.24
2022-11-12T08:58:25.018Z,11.40
2022-11-12T09:00:52.440Z,11.56
2022-11-12T09:03:21.948Z,11.76
2022-11-12T09:05:49.866Z,11.88
2022-11-12T09:08:19.755Z,11.94
2022-11-12T09:10:46.885Z,12.12
2022-11-12T09:13:13.834Z,12.26
2022-11-12T09:15:41.017Z,12.33
2022-11-12T09:18:12.994Z,12.41
2022-11-12T09:20:39.997Z,12.50
2022-11-12T09:23:12.829Z,12.58
2022-11-12T09:25:40.754Z,12.85
2022-11-12T09:28:18.771Z,12.83
2022-11-12T09:30:48.125Z,12.82
2022-11-12T09:33:19.889Z,13.00
2022-11-12T09:35:47.085Z,12.89
2022-11-12T09:38:14.636Z,12.80
2022-11-12T09:40:53.165Z,12.66
2022-11-12T09:43:40.004Z,12.69
2022-11-12T09:46:28.259Z,12.78
2022-11-12T09:49:14.114Z,12.85
2022-11-12T09:52:06.561Z,13.16
2022-11-12T09:54:35.968Z,13.19
2022-11-12T09:57:02.676Z,13.34
2022-11-12T09:59:32.843Z,13.43
2022-11-12T10:02:29.793Z,13.62
2022-11-12T10:04:56.330Z,13.73
2022-11-12T10:07:44.992Z,13.73
2022-11-12T10:10:41.765Z,13.82
2022-11-12T10:13:19.334Z,13.64
2022-11-12T10:15:48.939Z,13.60
2022-11-12T10:18:27.790Z,13.71
2022-11-12T10:21:13.247Z,13.71
2022-11-12T10:23:46.210Z,13.65
2022-11-12T10:26:18.511Z,13.70
2022-11-12T10:28:53.615Z,13.81
2022-11-12T10:31:21.732Z,13.90
2022-11-12T10:33:48.367Z,13.86
2022-11-12T10:36:34.160Z,13.76
2022-11-12T10:39:00.598Z,13.79
2022-11-12T10:41:30.431Z,13.83
2022-11-12T10:44:03.768Z,13.84
2022-11-12T10:46:38.342Z,13.97
2022-11-12T10:49:15.331Z,13.99
2022-11-12T10:51:54.488Z,14.00
2022-11-12T10:54:26.822Z,13.99
2022-11-12T10:56:55.602Z,13.99
2022-11-12T10:59:24.316Z,13.92
2022-11-12T11:01:57.194Z,13.75
2022-11-12T11:04:36.547Z,13.70
2022-11-12T11:07:20.135Z,13.67
2022-11-12T11:09:58.189Z,13.67
2022-11-12T11:12:29.541Z,13.69
2022-11-12T11:15:11.420Z,13.67
2022-11-12T11:17:37.937Z,13.60
2022-11-12T11:20:14.142Z,13.60
2022-11-12T11:22:47.785Z,13.64
2022-11-12T11:25:25.755Z,13.67
2022-11-12T11:28:08.469Z,13.69
2022-11-12T11:30:44.683Z,13.76
2022-11-12T11:33:43.676Z,13.80
2022-11-12T11:36:10.141Z,13.86
2022-11-12T11:38:45.825Z,13.89
2022-11-12T11:41:27.509Z,13.91
2022-11-12T11:44:26.555Z,13.94
2022-11-12T11:47:08.830Z,13.99
2022-11-12T11:50:03.518Z,14.02
2022-11-12T11:52:34.631Z,14.07
2022-11-12T11:55:26.755Z,14.11
2022-11-12T11:58:16.311Z,14.10
2022-11-12T12:01:00.846Z,14.12
2022-11-12T12:03:45.804Z,14.15
2022-11-12T12:06:20.970Z,14.15
2022-11-12T12:08:50.259Z,14.15
2022-11-12T12:11:25.822Z,14.18
2022-11-12T12:14:14.144Z,14.22
2022-11-12T12:17:11.620Z,14.30
2022-11-12T12:19:45.735Z,14.34
2022-11-12T12:22:18.970Z,14.33
2022-11-12T12:24:57.559Z,14.32
2022-11-12T12:27:32.848Z,14.34
2022-11-12T12:30:17.458Z,14.36
2022-11-12T12:32:55.256Z,14.37
2022-11-12T12:35:40.748Z,14.34
2022-11-12T12:38:26.067Z,14.36
2022-11-12T12:41:20.415Z,14.35
2022-11-12T12:43:52.688Z,14.37
2022-11-12T12:46:23.538Z,14.40
2022-11-12T12:48:52.360Z,14.40
2022-11-12T12:51:19.400Z,14.39
2022-11-12T12:53:46.318Z,14.40
2022-11-12T12:56:12.959Z,14.37
2022-11-12T12:58:50.545Z,14.35
2022-11-12T13:01:19.934Z,14.32
2022-11-12T13:03:57.758Z,14.29
2022-11-12T13:06:28.217Z,14.29
2022-11-12T13:08:56.539Z,14.26
2022-11-12T13:11:41.543Z,14.26
2022-11-12T13:14:36.238Z,14.26
2022-11-12T13:17:04.147Z,14.22
2022-11-12T13:19:47.743Z,14.21
2022-11-12T13:22:17.441Z,14.18
2022-11-12T13:25:08.222Z,14.16
2022-11-12T13:27:43.940Z,14.14
2022-11-12T13:30:30.320Z,14.11
2022-11-12T13:32:58.651Z,14.09
2022-11-12T13:35:29.644Z,14.08
2022-11-12T13:38:04.926Z,14.07
2022-11-12T13:41:09.418Z,14.04
2022-11-12T13:43:40.325Z,14.01
2022-11-12T13:46:06.801Z,13.98
2022-11-12T13:48:39.992Z,13.95
2022-11-12T13:51:22.297Z,13.93
2022-11-12T13:53:48.836Z,13.89
2022-11-12T13:56:29.652Z,13.84
2022-11-12T13:59:08.970Z,13.75
2022-11-12T14:01:35.615Z,13.68
2022-11-12T14:04:02.084Z,13.62
2022-11-12T14:06:42.746Z,13.55
2022-11-12T14:09:47.126Z,13.46
2022-11-12T14:12:34.409Z,13.40
2022-11-12T14:15:32.775Z,13.34
2022-11-12T14:18:07.056Z,13.28
2022-11-12T14:20:34.862Z,13.23
2022-11-12T14:23:12.012Z,13.19
2022-11-12T14:25:54.525Z,13.18
2022-11-12T14:28:35.402Z,13.17
2022-11-12T14:31:04.171Z,13.09
2022-11-12T14:33:32.367Z,12.97
2022-11-12T14:36:16.661Z,12.83
2022-11-12T14:38:55.447Z,12.67
2022-11-12T14:41:31.377Z,12.50
2022-11-12T14:44:12.589Z,12.37
2022-11-12T14:46:50.301Z,12.22
2022-11-12T14:49:28.411Z,12.06
2022-11-12T14:52:03.756Z,11.89
2022-11-12T14:54:50.428Z,11.72
2022-11-12T14:57:28.109Z,11.56
2022-11-12T14:59:56.090Z,11.37
2022-11-12T15:02:42.354Z,11.19
2022-11-12T15:05:19.264Z,11.01
2022-11-12T15:08:19.568Z,10.84
2022-11-12T15:10:46.930Z,10.66
2022-11-12T15:13:19.876Z,10.51
2022-11-12T15:15:55.884Z,10.35
2022-11-12T15:18:27.944Z,10.20
2022-11-12T15:21:09.734Z,10.07
2022-11-12T15:23:36.687Z,9.93
2022-11-12T15:26:04.043Z,9.83
2022-11-12T15:28:30.585Z,9.74
2022-11-12T15:31:21.537Z,9.65
2022-11-12T15:33:48.243Z,9.54
2022-11-12T15:36:20.743Z,9.44
2022-11-12T15:38:50.841Z,9.33
2022-11-12T15:41:29.493Z,9.19
2022-11-12T15:43:57.085Z,9.11
2022-11-12T15:46:23.559Z,9.05
2022-11-12T15:48:55.593Z,8.98
2022-11-12T15:51:23.085Z,8.89
2022-11-12T15:53:49.563Z,8.79
2022-11-12T15:56:19.319Z,8.69
2022-11-12T15:58:45.875Z,8.61
2022-11-12T16:01:12.933Z,8.62
2022-11-12T16:03:39.770Z,8.65
2022-11-12T16:06:09.181Z,8.61
2022-11-12T16:08:36.040Z,8.57
2022-11-12T16:11:02.677Z,8.58
2022-11-12T16:13:33.200Z,8.58
2022-11-12T16:16:04.356Z,8.49
2022-11-12T16:18:30.874Z,8.37
2022-11-12T16:20:57.823Z,8.21
2022-11-12T16:23:24.423Z,8.06
2022-11-12T16:25:51.516Z,7.91
2022-11-12T16:28:19.280Z,7.78
2022-11-12T16:30:47.869Z,7.67
2022-11-12T16:33:14.513Z,7.55
2022-11-12T16:35:41.364Z,7.43
2022-11-12T16:38:15.910Z,7.31
2022-11-12T16:40:43.917Z,7.22
2022-11-12T16:43:11.142Z,7.14
2022-11-12T16:45:43.074Z,7.03
2022-11-12T16:48:17.226Z,6.94
2022-11-12T16:50:43.831Z,6.83
2022-11-12T16:53:10.292Z,6.72
2022-11-12T16:55:36.771Z,6.61
2022-11-12T16:58:03.344Z,6.49
2022-11-12T17:00:30.085Z,6.38
2022-11-12T17:02:56.624Z,6.28
2022-11-12T17:05:25.108Z,6.19
2022-11-12T17:07:56.608Z,6.10
2022-11-12T17:10:23.711Z,5.99
2022-11-12T17:12:53.429Z,5.89
2022-11-12T17:15:20.380Z,5.81
2022-11-12T17:17:46.909Z,5.74
2022-11-12T17:20:13.448Z,5.68
2022-11-12T17:22:39.925Z,5.62
2022-11-12T17:25:07.281Z,5.55
2022-11-12T17:27:33.783Z,5.49
2022-11-12T17:30:00.324Z,5.42
2022-11-12T17:32:27.271Z,5.31
2022-11-12T17:34:53.810Z,5.26
2022-11-12T17:37:20.290Z,5.19
2022-11-12T17:39:46.887Z,5.10
2022-11-12T17:42:13.423Z,4.97
2022-11-12T17:44:39.833Z,4.88
2022-11-12T17:47:06.398Z,4.83
2022-11-12T17:49:32.972Z,4.81
2022-11-12T17:51:59.472Z,4.82
2022-11-12T17:54:26.015Z,4.80
2022-11-12T17:56:52.471Z,4.78
2022-11-12T17:59:18.912Z,4.73
2022-11-12T18:01:45.319Z,4.70
2022-11-12T18:04:11.859Z,4.71
2022-11-12T18:06:38.571Z,4.68
2022-11-12T18:09:08.023Z,4.62
2022-11-12T18:11:44.948Z,4.58
2022-11-12T18:14:11.932Z,4.57
2022-11-12T18:16:38.894Z,4.60
2022-11-12T18:19:06.285Z,4.63
2022-11-12T18:21:32.881Z,4.62
2022-11-12T18:23:59.327Z,4.60
2022-11-12T18:26:25.819Z,4.55
2022-11-12T18:28:53.846Z,4.51
2022-11-12T18:31:22.103Z,4.43
2022-11-12T18:33:49.459Z,4.34
2022-11-12T18:36:18.456Z,4.25
2022-11-12T18:38:45.719Z,4.16
2022-11-12T18:41:18.831Z,4.11
2022-11-12T18:43:45.338Z,4.09
2022-11-12T18:46:12.489Z,4.09
2022-11-12T18:48:39.213Z,4.07
2022-11-12T18:51:10.903Z,4.05
2022-11-12T18:53:38.690Z,3.98
2022-11-12T18:56:11.852Z,3.91
2022-11-12T18:58:38.393Z,3.85
2022-11-12T19:01:07.789Z,3.77
2022-11-12T19:03:34.971Z,3.68
2022-11-12T19:06:03.735Z,3.60
2022-11-12T19:08:30.391Z,3.57
2022-11-12T19:11:04.533Z,3.51
2022-11-12T19:13:32.160Z,3.45
2022-11-12T19:16:07.760Z,3.40
2022-11-12T19:18:34.347Z,3.32
2022-11-12T19:21:05.951Z,3.29
2022-11-12T19:23:33.812Z,3.32
2022-11-12T19:26:04.612Z,3.38
2022-11-12T19:28:31.967Z,3.41
2022-11-12T19:30:58.609Z,3.40
2022-11-12T19:33:25.153Z,3.35
2022-11-12T19:35:51.584Z,3.31
2022-11-12T19:38:18.124Z,3.27
2022-11-12T19:40:44.658Z,3.24
2022-11-12T19:43:11.300Z,3.22
2022-11-12T19:45:37.764Z,3.20
2022-11-12T19:48:04.383Z,3.16
2022-11-12T19:50:31.328Z,3.11
2022-11-12T19:52:57.864Z,3.07
2022-11-12T19:55:24.410Z,3.04
2022-11-12T19:57:51.367Z,3.01
2022-11-12T20:00:18.426Z,2.97
2022-11-12T20:02:45.079Z,2.90
2022-11-12T20:05:11.577Z,2.83
2022-11-12T20:07:38.038Z,2.77
2022-11-12T20:10:05.161Z,2.72
2022-11-12T20:12:31.566Z,2.71
2022-11-12T20:14:58.029Z,2.70
2022-11-12T20:17:24.571Z,2.77
2022-11-12T20:19:51.102Z,2.77
2022-11-12T20:22:17.639Z,2.73
2022-11-12T20:24:44.177Z,2.72
2022-11-12T20:27:10.712Z,2.70
2022-11-12T20:29:37.254Z,2.69
2022-11-12T20:32:03.860Z,2.67
2022-11-12T20:34:30.327Z,2.62
2022-11-12T20:36:56.767Z,2.59
2022-11-12T20:39:23.300Z,2.57
2022-11-12T20:41:49.712Z,2.57
2022-11-12T20:44:16.374Z,2.58
2022-11-12T20:46:42.842Z,-23.53
2022-11-12T20:49:09.308Z,2.56
2022-11-12T20:51:36.093Z,2.56
2022-11-12T20:54:02.635Z,2.52
2022-11-12T20:56:30.635Z,2.48
2022-11-12T20:58:59.093Z,2.44
2022-11-12T21:01:27.777Z,2.41
2022-11-12T21:03:55.029Z,2.39
2022-11-12T21:06:24.192Z,2.37
2022-11-12T21:08:50.966Z,2.36
2022-11-12T21:11:22.900Z,2.35
2022-11-12T21:13:49.779Z,2.34
2022-11-12T21:16:16.620Z,2.35
2022-11-12T21:18:43.099Z,2.36
2022-11-12T21:21:15.155Z,2.39
2022-11-12T21:23:43.827Z,2.42
2022-11-12T21:26:21.562Z,2.44
2022-11-12T21:28:53.278Z,2.47
2022-11-12T21:31:37.949Z,2.49
2022-11-12T21:34:04.680Z,2.52
2022-11-12T21:36:32.819Z,2.55
2022-11-12T21:38:59.327Z,2.58
2022-11-12T21:41:27.884Z,2.61
2022-11-12T21:43:55.031Z,2.63
2022-11-12T21:46:27.446Z,2.67
2022-11-12T21:48:55.786Z,2.72
2022-11-12T21:51:27.776Z,2.77
2022-11-12T21:53:57.024Z,2.83
2022-11-12T21:56:23.864Z,2.88
2022-11-12T21:58:50.724Z,2.94
2022-11-12T22:01:22.678Z,3.00
2022-11-12T22:03:50.610Z,3.07
2022-11-12T22:06:18.771Z,3.11
2022-11-12T22:08:45.724Z,3.17
2022-11-12T22:11:14.708Z,3.21
2022-11-12T22:13:42.166Z,3.26
2022-11-12T22:16:09.787Z,3.32
2022-11-12T22:18:40.720Z,3.38
2022-11-12T22:21:13.866Z,3.44
2022-11-12T22:23:40.660Z,3.51
2022-11-12T22:26:14.115Z,3.56
2022-11-12T22:28:41.213Z,3.61
2022-11-12T22:31:11.347Z,3.64
2022-11-12T22:33:38.949Z,3.66
2022-11-12T22:36:08.538Z,3.68
2022-11-12T22:38:36.805Z,3.69
2022-11-12T22:41:09.206Z,3.71
2022-11-12T22:43:35.748Z,3.73
2022-11-12T22:46:10.519Z,3.76
2022-11-12T22:48:37.633Z,3.76
2022-11-12T22:51:06.983Z,3.73
2022-11-12T22:53:34.298Z,3.72
2022-11-12T22:56:09.129Z,3.70
2022-11-12T22:58:40.628Z,3.71
2022-11-12T23:01:07.946Z,3.74
2022-11-12T23:03:35.312Z,3.77
2022-11-12T23:06:04.843Z,3.81
2022-11-12T23:08:32.391Z,3.84
2022-11-12T23:11:05.040Z,3.88
2022-11-12T23:13:32.204Z,3.91
2022-11-12T23:15:59.092Z,3.95
2022-11-12T23:18:26.115Z,3.97
2022-11-12T23:20:52.951Z,4.01
2022-11-12T23:23:19.574Z,4.05
2022-11-12T23:25:46.125Z,4.08
2022-11-12T23:28:12.661Z,4.11
2022-11-12T23:30:39.093Z,4.11
2022-11-12T23:33:05.639Z,4.08
2022-11-12T23:35:32.177Z,4.06
2022-11-12T23:37:58.780Z,4.06
2022-11-12T23:40:29.797Z,4.08
2022-11-12T23:42:57.501Z,4.09
2022-11-12T23:45:23.969Z,4.10
2022-11-12T23:47:54.705Z,4.12
2022-11-12T23:50:21.242Z,4.15
2022-11-12T23:52:47.885Z,4.17
2022-11-12T23:55:14.529Z,4.20
2022-11-12T23:57:41.167Z,4.21
